sensor_id;sensor_type;location;lat;lon;timestamp;temperature;humidity
19435;DHT22;9853;50.848;4.108;2023-02-01T00:25:32;7.90;99.90
19435;DHT22;9853;50.848;4.108;2023-02-01T00:28:24;8.10;99.90
19435;DHT22;9853;50.848;4.108;2023-02-01T00:31:28;8.10;99.90
19435;DHT22;9853;50.848;4.108;2023-02-01T00:34:17;8.00;99.90
19435;DHT22;9853;50.848;4.108;2023-02-01T00:37:18;7.80;99.90
19435;DHT22;9853;50.848;4.108;2023-02-01T00:39:40;7.90;99.90
19435;DHT22;9853;50.848;4.108;2023-02-01T00:44:53;7.80;99.90
19435;DHT22;9853;50.848;4.108;2023-02-01T00:53:03;7.90;99.90
19435;DHT22;9853;50.848;4.108;2023-02-01T00:55:29;7.90;99.90
19435;DHT22;9853;50.848;4.108;2023-02-01T00:57:54;7.80;99.90
19435;DHT22;9853;50.848;4.108;2023-02-01T01:04:00;7.90;99.90
19435;DHT22;9853;50.848;4.108;2023-02-01T01:06:24;7.90;99.90
19435;DHT22;9853;50.848;4.108;2023-02-01T01:11:46;7.80;99.90
19435;DHT22;9853;50.848;4.108;2023-02-01T01:14:21;7.70;99.90
19435;DHT22;9853;50.848;4.108;2023-02-01T01:17:38;7.70;99.90
19435;DHT22;9853;50.848;4.108;2023-02-01T01:20:38;7.90;99.90
19435;DHT22;9853;50.848;4.108;2023-02-01T01:45:30;8.20;99.90
19435;DHT22;9853;50.848;4.108;2023-02-01T01:55:18;8.40;99.90
19435;DHT22;9853;50.848;4.108;2023-02-01T02:05:36;7.80;99.90
19435;DHT22;9853;50.848;4.108;2023-02-01T02:14:19;8.00;99.90
19435;DHT22;9853;50.848;4.108;2023-02-01T02:26:01;8.00;99.90
19435;DHT22;9853;50.848;4.108;2023-02-01T02:43:46;8.10;99.90
19435;DHT22;9853;50.848;4.108;2023-02-01T02:46:48;8.10;99.90
19435;DHT22;9853;50.848;4.108;2023-02-01T02:58:54;7.60;99.90
19435;DHT22;9853;50.848;4.108;2023-02-01T03:01:48;7.60;99.90
19435;DHT22;9853;50.848;4.108;2023-02-01T03:04:37;7.70;99.90
19435;DHT22;9853;50.848;4.108;2023-02-01T03:13:03;7.30;99.90
19435;DHT22;9853;50.848;4.108;2023-02-01T03:15:48;7.20;99.90
19435;DHT22;9853;50.848;4.108;2023-02-01T03:22:02;7.20;99.90
19435;DHT22;9853;50.848;4.108;2023-02-01T03:28:05;7.10;99.90
19435;DHT22;9853;50.848;4.108;2023-02-01T03:30:43;7.10;99.90
19435;DHT22;9853;50.848;4.108;2023-02-01T03:40:11;6.90;99.90
19435;DHT22;9853;50.848;4.108;2023-02-01T03:42:43;6.90;99.90
19435;DHT22;9853;50.848;4.108;2023-02-01T03:55:43;6.60;99.90
19435;DHT22;9853;50.848;4.108;2023-02-01T03:58:28;6.70;99.90
19435;DHT22;9853;50.848;4.108;2023-02-01T04:01:03;6.60;99.90
19435;DHT22;9853;50.848;4.108;2023-02-01T04:10:22;6.50;99.90
19435;DHT22;9853;50.848;4.108;2023-02-01T04:13:11;6.40;99.90
19435;DHT22;9853;50.848;4.108;2023-02-01T04:18:55;6.70;99.90
19435;DHT22;9853;50.848;4.108;2023-02-01T04:24:06;6.60;99.90
19435;DHT22;9853;50.848;4.108;2023-02-01T04:26:55;6.60;99.90
19435;DHT22;9853;50.848;4.108;2023-02-01T04:32:40;6.40;99.90
19435;DHT22;9853;50.848;4.108;2023-02-01T04:38:40;6.20;99.90
19435;DHT22;9853;50.848;4.108;2023-02-01T04:41:22;6.20;99.90
19435;DHT22;9853;50.848;4.108;2023-02-01T04:43:36;6.20;99.90
19435;DHT22;9853;50.848;4.108;2023-02-01T04:48:56;6.10;99.90
19435;DHT22;9853;50.848;4.108;2023-02-01T04:51:28;6.10;99.90
19435;DHT22;9853;50.848;4.108;2023-02-01T04:54:23;6.10;99.90
19435;DHT22;9853;50.848;4.108;2023-02-01T05:02:25;6.00;99.90
19435;DHT22;9853;50.848;4.108;2023-02-01T05:07:34;6.00;99.90
19435;DHT22;9853;50.848;4.108;2023-02-01T05:09:57;5.90;99.90
19435;DHT22;9853;50.848;4.108;2023-02-01T05:15:45;6.00;99.90
19435;DHT22;9853;50.848;4.108;2023-02-01T05:17:58;6.10;99.90
19435;DHT22;9853;50.848;4.108;2023-02-01T05:23:23;5.90;99.90
19435;DHT22;9853;50.848;4.108;2023-02-01T05:25:46;6.00;99.90
19435;DHT22;9853;50.848;4.108;2023-02-01T05:28:07;5.90;99.90
19435;DHT22;9853;50.848;4.108;2023-02-01T05:30:34;6.00;99.90
19435;DHT22;9853;50.848;4.108;2023-02-01T05:33:08;5.90;99.90
19435;DHT22;9853;50.848;4.108;2023-02-01T05:36:04;5.80;99.90
19435;DHT22;9853;50.848;4.108;2023-02-01T05:41:32;5.70;99.90
19435;DHT22;9853;50.848;4.108;2023-02-01T05:43:49;5.70;99.90
19435;DHT22;9853;50.848;4.108;2023-02-01T05:46:03;5.90;99.90
19435;DHT22;9853;50.848;4.108;2023-02-01T05:48:20;6.10;99.90
19435;DHT22;9853;50.848;4.108;2023-02-01T05:50:51;6.00;99.90
19435;DHT22;9853;50.848;4.108;2023-02-01T05:52:52;6.00;99.90
19435;DHT22;9853;50.848;4.108;2023-02-01T05:55:13;5.90;99.90
19435;DHT22;9853;50.848;4.108;2023-02-01T05:57:42;5.80;99.90
19435;DHT22;9853;50.848;4.108;2023-02-01T05:59:55;5.80;99.90
19435;DHT22;9853;50.848;4.108;2023-02-01T06:02:14;5.80;99.90
19435;DHT22;9853;50.848;4.108;2023-02-01T06:05:18;5.90;99.90
19435;DHT22;9853;50.848;4.108;2023-02-01T06:08:02;5.80;99.90
19435;DHT22;9853;50.848;4.108;2023-02-01T06:10:51;5.90;99.90
19435;DHT22;9853;50.848;4.108;2023-02-01T06:13:05;6.00;99.90
19435;DHT22;9853;50.848;4.108;2023-02-01T06:15:07;5.90;99.90
19435;DHT22;9853;50.848;4.108;2023-02-01T06:17:10;6.00;99.90
19435;DHT22;9853;50.848;4.108;2023-02-01T06:19:13;6.00;99.90
19435;DHT22;9853;50.848;4.108;2023-02-01T06:21:31;6.00;99.90
19435;DHT22;9853;50.848;4.108;2023-02-01T06:23:36;6.20;99.90
19435;DHT22;9853;50.848;4.108;2023-02-01T06:25:37;6.10;99.90
19435;DHT22;9853;50.848;4.108;2023-02-01T06:27:38;5.90;99.90
19435;DHT22;9853;50.848;4.108;2023-02-01T06:29:39;5.70;99.90
19435;DHT22;9853;50.848;4.108;2023-02-01T06:31:39;5.80;99.90
19435;DHT22;9853;50.848;4.108;2023-02-01T06:33:40;5.60;99.90
19435;DHT22;9853;50.848;4.108;2023-02-01T06:35:42;5.70;99.90
19435;DHT22;9853;50.848;4.108;2023-02-01T06:37:44;5.80;99.90
19435;DHT22;9853;50.848;4.108;2023-02-01T06:39:45;5.80;99.90
19435;DHT22;9853;50.848;4.108;2023-02-01T06:41:48;5.80;99.90
19435;DHT22;9853;50.848;4.108;2023-02-01T06:43:49;5.70;99.90
19435;DHT22;9853;50.848;4.108;2023-02-01T06:45:50;5.80;99.90
19435;DHT22;9853;50.848;4.108;2023-02-01T06:47:50;5.80;99.90
19435;DHT22;9853;50.848;4.108;2023-02-01T06:49:53;5.80;99.90
19435;DHT22;9853;50.848;4.108;2023-02-01T06:51:54;5.80;99.90
19435;DHT22;9853;50.848;4.108;2023-02-01T06:54:13;5.60;99.90
19435;DHT22;9853;50.848;4.108;2023-02-01T06:56:23;5.60;99.90
19435;DHT22;9853;50.848;4.108;2023-02-01T06:58:24;5.80;99.90
19435;DHT22;9853;50.848;4.108;2023-02-01T07:00:29;5.80;99.90
19435;DHT22;9853;50.848;4.108;2023-02-01T07:02:30;5.70;99.90
19435;DHT22;9853;50.848;4.108;2023-02-01T07:04:31;5.70;99.90
19435;DHT22;9853;50.848;4.108;2023-02-01T07:06:34;5.60;99.90
19435;DHT22;9853;50.848;4.108;2023-02-01T07:08:36;5.60;99.90
19435;DHT22;9853;50.848;4.108;2023-02-01T07:10:41;5.80;99.90
19435;DHT22;9853;50.848;4.108;2023-02-01T07:12:41;5.60;99.90
19435;DHT22;9853;50.848;4.108;2023-02-01T07:14:42;5.60;99.90
19435;DHT22;9853;50.848;4.108;2023-02-01T07:16:43;5.60;99.90
19435;DHT22;9853;50.848;4.108;2023-02-01T07:18:44;5.50;99.90
19435;DHT22;9853;50.848;4.108;2023-02-01T07:20:52;5.60;99.90
19435;DHT22;9853;50.848;4.108;2023-02-01T07:22:56;5.70;99.90
19435;DHT22;9853;50.848;4.108;2023-02-01T07:24:57;5.90;99.90
19435;DHT22;9853;50.848;4.108;2023-02-01T07:26:58;5.90;99.90
19435;DHT22;9853;50.848;4.108;2023-02-01T07:28:59;5.80;99.90
19435;DHT22;9853;50.848;4.108;2023-02-01T07:31:10;5.80;99.90
19435;DHT22;9853;50.848;4.108;2023-02-01T07:33:11;5.80;99.90
19435;DHT22;9853;50.848;4.108;2023-02-01T07:35:12;5.90;99.90
19435;DHT22;9853;50.848;4.108;2023-02-01T07:37:21;5.90;99.90
19435;DHT22;9853;50.848;4.108;2023-02-01T07:39:24;5.90;99.90
19435;DHT22;9853;50.848;4.108;2023-02-01T07:41:25;5.90;99.90
19435;DHT22;9853;50.848;4.108;2023-02-01T07:43:27;6.10;99.90
19435;DHT22;9853;50.848;4.108;2023-02-01T07:45:27;6.00;99.90
19435;DHT22;9853;50.848;4.108;2023-02-01T07:47:28;6.00;99.90
19435;DHT22;9853;50.848;4.108;2023-02-01T07:49:29;5.90;99.90
19435;DHT22;9853;50.848;4.108;2023-02-01T07:51:30;6.00;99.90
19435;DHT22;9853;50.848;4.108;2023-02-01T07:53:33;6.10;99.90
19435;DHT22;9853;50.848;4.108;2023-02-01T07:55:34;6.00;99.90
19435;DHT22;9853;50.848;4.108;2023-02-01T07:57:37;6.20;99.90
19435;DHT22;9853;50.848;4.108;2023-02-01T07:59:40;6.40;99.90
19435;DHT22;9853;50.848;4.108;2023-02-01T08:02:01;6.30;99.90
19435;DHT22;9853;50.848;4.108;2023-02-01T08:04:03;6.40;99.90
19435;DHT22;9853;50.848;4.108;2023-02-01T08:06:04;6.40;99.90
19435;DHT22;9853;50.848;4.108;2023-02-01T08:08:07;6.60;99.90
19435;DHT22;9853;50.848;4.108;2023-02-01T08:10:09;6.60;99.90
19435;DHT22;9853;50.848;4.108;2023-02-01T08:12:11;6.90;99.90
19435;DHT22;9853;50.848;4.108;2023-02-01T08:14:12;6.90;99.90
19435;DHT22;9853;50.848;4.108;2023-02-01T08:16:14;6.90;99.90
19435;DHT22;9853;50.848;4.108;2023-02-01T08:18:18;6.80;99.90
19435;DHT22;9853;50.848;4.108;2023-02-01T08:20:19;6.80;99.90
19435;DHT22;9853;50.848;4.108;2023-02-01T08:22:22;6.90;99.90
19435;DHT22;9853;50.848;4.108;2023-02-01T08:24:25;7.10;99.90
19435;DHT22;9853;50.848;4.108;2023-02-01T08:26:26;7.30;99.90
19435;DHT22;9853;50.848;4.108;2023-02-01T08:28:27;7.30;99.90
19435;DHT22;9853;50.848;4.108;2023-02-01T08:30:30;7.10;99.90
19435;DHT22;9853;50.848;4.108;2023-02-01T08:32:31;7.00;99.90
19435;DHT22;9853;50.848;4.108;2023-02-01T08:34:31;7.00;99.90
19435;DHT22;9853;50.848;4.108;2023-02-01T08:36:32;6.80;99.90
19435;DHT22;9853;50.848;4.108;2023-02-01T08:38:35;7.00;99.90
19435;DHT22;9853;50.848;4.108;2023-02-01T08:40:36;7.10;99.90
19435;DHT22;9853;50.848;4.108;2023-02-01T08:42:37;7.20;99.90
19435;DHT22;9853;50.848;4.108;2023-02-01T08:44:53;7.20;99.90
19435;DHT22;9853;50.848;4.108;2023-02-01T08:46:54;7.30;99.90
19435;DHT22;9853;50.848;4.108;2023-02-01T08:48:54;7.30;99.90
19435;DHT22;9853;50.848;4.108;2023-02-01T08:50:55;7.30;99.90
19435;DHT22;9853;50.848;4.108;2023-02-01T08:52:56;7.20;99.90
19435;DHT22;9853;50.848;4.108;2023-02-01T08:54:57;7.20;99.90
19435;DHT22;9853;50.848;4.108;2023-02-01T08:56:57;7.30;99.90
19435;DHT22;9853;50.848;4.108;2023-02-01T08:58:58;7.60;99.90
19435;DHT22;9853;50.848;4.108;2023-02-01T09:01:11;7.90;99.90
19435;DHT22;9853;50.848;4.108;2023-02-01T09:03:14;8.20;99.90
19435;DHT22;9853;50.848;4.108;2023-02-01T09:05:15;8.10;99.90
19435;DHT22;9853;50.848;4.108;2023-02-01T09:07:19;8.00;99.90
19435;DHT22;9853;50.848;4.108;2023-02-01T09:09:20;8.00;99.90
19435;DHT22;9853;50.848;4.108;2023-02-01T09:11:21;8.10;99.90
19435;DHT22;9853;50.848;4.108;2023-02-01T09:13:21;7.90;99.90
19435;DHT22;9853;50.848;4.108;2023-02-01T09:15:22;7.70;99.90
19435;DHT22;9853;50.848;4.108;2023-02-01T09:17:23;7.80;99.90
19435;DHT22;9853;50.848;4.108;2023-02-01T09:19:24;8.00;99.90
19435;DHT22;9853;50.848;4.108;2023-02-01T09:21:25;8.30;99.90
19435;DHT22;9853;50.848;4.108;2023-02-01T09:23:25;8.40;99.90
19435;DHT22;9853;50.848;4.108;2023-02-01T09:25:26;8.70;99.90
19435;DHT22;9853;50.848;4.108;2023-02-01T09:27:27;8.90;99.90
19435;DHT22;9853;50.848;4.108;2023-02-01T09:29:28;9.20;99.90
19435;DHT22;9853;50.848;4.108;2023-02-01T09:31:30;9.40;99.90
19435;DHT22;9853;50.848;4.108;2023-02-01T09:33:30;9.50;99.90
19435;DHT22;9853;50.848;4.108;2023-02-01T09:35:31;9.70;99.90
19435;DHT22;9853;50.848;4.108;2023-02-01T09:37:32;9.80;99.90
19435;DHT22;9853;50.848;4.108;2023-02-01T09:39:36;9.90;99.90
19435;DHT22;9853;50.848;4.108;2023-02-01T09:46:33;9.60;99.90
19435;DHT22;9853;50.848;4.108;2023-02-01T09:48:37;10.00;99.90
19435;DHT22;9853;50.848;4.108;2023-02-01T09:50:43;9.90;99.90
19435;DHT22;9853;50.848;4.108;2023-02-01T09:55:42;9.10;99.90
19435;DHT22;9853;50.848;4.108;2023-02-01T09:57:50;9.00;99.90
19435;DHT22;9853;50.848;4.108;2023-02-01T10:00:07;8.80;99.90
19435;DHT22;9853;50.848;4.108;2023-02-01T10:02:17;8.80;99.90
19435;DHT22;9853;50.848;4.108;2023-02-01T10:04:19;9.00;99.90
19435;DHT22;9853;50.848;4.108;2023-02-01T10:08:57;8.90;99.90
19435;DHT22;9853;50.848;4.108;2023-02-01T10:11:13;9.00;99.90
19435;DHT22;9853;50.848;4.108;2023-02-01T10:13:23;8.90;99.90
19435;DHT22;9853;50.848;4.108;2023-02-01T10:22:46;8.80;99.90
19435;DHT22;9853;50.848;4.108;2023-02-01T10:29:17;9.00;99.90
19435;DHT22;9853;50.848;4.108;2023-02-01T10:31:21;9.10;99.90
19435;DHT22;9853;50.848;4.108;2023-02-01T10:33:56;9.20;99.90
19435;DHT22;9853;50.848;4.108;2023-02-01T10:36:16;9.40;99.90
19435;DHT22;9853;50.848;4.108;2023-02-01T10:38:30;9.40;99.90
19435;DHT22;9853;50.848;4.108;2023-02-01T10:40:31;9.50;99.90
19435;DHT22;9853;50.848;4.108;2023-02-01T10:42:32;9.40;99.90
19435;DHT22;9853;50.848;4.108;2023-02-01T10:44:43;9.50;99.90
19435;DHT22;9853;50.848;4.108;2023-02-01T10:46:45;9.40;99.90
19435;DHT22;9853;50.848;4.108;2023-02-01T10:48:52;9.50;99.90
19435;DHT22;9853;50.848;4.108;2023-02-01T10:51:07;9.60;99.90
19435;DHT22;9853;50.848;4.108;2023-02-01T10:53:18;9.90;99.90
19435;DHT22;9853;50.848;4.108;2023-02-01T10:55:41;9.90;99.90
19435;DHT22;9853;50.848;4.108;2023-02-01T10:57:59;9.80;99.90
19435;DHT22;9853;50.848;4.108;2023-02-01T11:00:08;9.80;99.90
19435;DHT22;9853;50.848;4.108;2023-02-01T11:02:31;10.00;99.90
19435;DHT22;9853;50.848;4.108;2023-02-01T11:04:34;9.90;99.90
19435;DHT22;9853;50.848;4.108;2023-02-01T11:06:37;9.90;99.90
19435;DHT22;9853;50.848;4.108;2023-02-01T11:08:50;10.10;99.90
19435;DHT22;9853;50.848;4.108;2023-02-01T11:11:00;10.00;99.90
19435;DHT22;9853;50.848;4.108;2023-02-01T11:13:03;10.00;99.90
19435;DHT22;9853;50.848;4.108;2023-02-01T11:15:23;10.00;99.90
19435;DHT22;9853;50.848;4.108;2023-02-01T11:17:43;10.00;99.90
19435;DHT22;9853;50.848;4.108;2023-02-01T11:19:45;10.20;99.90
19435;DHT22;9853;50.848;4.108;2023-02-01T11:21:53;10.50;99.90
19435;DHT22;9853;50.848;4.108;2023-02-01T11:23:55;10.60;99.90
19435;DHT22;9853;50.848;4.108;2023-02-01T11:26:23;10.60;99.90
19435;DHT22;9853;50.848;4.108;2023-02-01T11:28:32;10.60;99.90
19435;DHT22;9853;50.848;4.108;2023-02-01T11:30:37;10.60;99.90
19435;DHT22;9853;50.848;4.108;2023-02-01T11:32:40;10.80;99.90
19435;DHT22;9853;50.848;4.108;2023-02-01T11:34:54;10.80;99.90
19435;DHT22;9853;50.848;4.108;2023-02-01T11:36:58;10.60;99.90
19435;DHT22;9853;50.848;4.108;2023-02-01T11:41:25;10.40;99.90
19435;DHT22;9853;50.848;4.108;2023-02-01T11:43:27;10.30;99.90
19435;DHT22;9853;50.848;4.108;2023-02-01T11:45:32;10.00;99.90
19435;DHT22;9853;50.848;4.108;2023-02-01T11:47:43;9.80;99.90
19435;DHT22;9853;50.848;4.108;2023-02-01T11:49:48;9.80;99.90
19435;DHT22;9853;50.848;4.108;2023-02-01T11:52:05;9.70;99.90
19435;DHT22;9853;50.848;4.108;2023-02-01T11:56:25;10.00;99.90
19435;DHT22;9853;50.848;4.108;2023-02-01T12:09:57;10.60;99.90
19435;DHT22;9853;50.848;4.108;2023-02-01T12:19:35;10.50;99.90
19435;DHT22;9853;50.848;4.108;2023-02-01T12:21:57;10.80;99.90
19435;DHT22;9853;50.848;4.108;2023-02-01T14:07:21;11.80;99.90
19435;DHT22;9853;50.848;4.108;2023-02-01T14:13:38;11.60;99.90
